Latest Weather Observations for Kingscote

IDS60801

Issued at 9:05 pm CST Thursday 31 July 2014 (issued every 30 minutes, with the page automatically refreshed every 10 minutes)

About weather observations | Map of weather stations | Latest weather observations for SA | Other Formats
Station Details ID: 022841 Name: KINGSCOTE AERO Lat: -35.71 Lon: 137.52 Height: 6.23 m
Data from the previous 72 hours. | See also: Recent months at Kingscote
Date/Time
CST
Temp
°C
App
Temp
°C
Dew
Point
Rel
Hum
%
Delta-T
°C
Wind Press
QNH
hPa
Press
MSL
hPa
Rain
since 9 am
mm
Dir
 
Spd
km/h
Gust
km/h
Spd
kts
Gust
kts
31/09:00pm 8.6 1.0 2.8 67 2.5 W 32 46 17 25 1009.1 1009.1 5.2
31/08:43pm 8.8 2.0 3.2 68 2.4 W 28 50 15 27 1009.3 - 5.2
31/08:30pm 7.8 2.8 3.5 74 1.8 W 19 28 10 15 1009.0 1009.0 5.2
31/08:00pm 7.7 2.6 3.2 73 1.9 W 19 26 10 14 1008.8 - 5.2
31/07:30pm 7.9 2.6 3.2 72 2.0 W 20 35 11 19 1008.6 1008.6 5.2
31/07:00pm 8.1 2.0 3.0 70 2.2 W 24 37 13 20 1008.5 - 5.2
31/06:30pm 8.9 1.2 2.3 63 2.8 W 32 43 17 23 1008.0 1008.0 5.2
31/06:00pm 8.9 3.2 2.9 66 2.6 W 22 32 12 17 1007.2 1007.2 5.2
31/05:30pm 9.0 3.0 3.4 68 2.4 W 24 33 13 18 1006.8 1006.8 5.2
31/05:00pm 9.2 4.0 3.8 69 2.4 W 20 30 11 16 1006.6 - 5.2
31/04:30pm 9.2 2.1 3.8 69 2.4 W 30 39 16 21 1006.3 1006.3 5.2
31/04:00pm 8.5 1.4 3.8 72 2.0 W 30 39 16 21 1006.1 - 5.2
31/03:37pm 8.9 0.3 4.5 74 1.9 WSW 39 63 21 34 1005.9 - 5.2
31/03:30pm 9.5 1.9 6.0 79 1.6 WSW 35 48 19 26 1005.5 1005.5 5.2
31/03:05pm 9.1 0.1 6.4 83 1.2 WSW 43 61 23 33 1004.9 - 5.2
31/03:00pm 9.6 1.5 7.2 85 1.1 WSW 39 52 21 28 1004.6 1004.6 5.2
31/02:46pm 9.7 3.4 7.3 85 1.1 WSW 30 43 16 23 1004.4 - 5.2
31/02:41pm 10.1 4.0 8.2 88 0.9 WSW 30 48 16 26 1004.3 - 5.2
31/02:32pm 10.0 2.8 7.6 85 1.1 W 35 48 19 26 1004.3 - 5.2
31/02:30pm 10.1 3.3 7.9 86 1.1 W 33 46 18 25 1004.2 1004.2 5.2
31/02:04pm 9.9 3.6 7.2 83 1.3 W 30 48 16 26 1003.9 - 5.0
31/02:00pm 9.9 3.6 7.2 83 1.3 W 30 39 16 21 1003.8 - 5.0
31/01:30pm 10.5 4.1 8.6 88 0.9 WSW 32 44 17 24 1003.6 1003.6 4.8
31/01:15pm 10.0 3.4 7.6 85 1.1 WSW 32 46 17 25 1003.3 - 4.4
31/01:00pm 10.0 1.6 7.4 84 1.2 WSW 41 63 22 34 1003.1 - 4.2
31/12:56pm 10.5 2.5 7.6 82 1.4 W 39 63 21 34 1003.0 - 4.2
31/12:30pm 11.3 4.8 8.0 80 1.6 W 32 56 17 30 1003.0 1003.0 4.0
31/12:24pm 11.1 4.9 7.8 80 1.6 W 30 56 16 30 1003.1 - 4.0
31/12:00pm 10.2 4.5 8.3 88 0.9 W 28 43 15 23 1003.9 1003.9 4.0
31/11:40am 10.3 4.7 8.9 91 0.7 WSW 28 41 15 22 1004.1 - 3.8
31/11:30am 10.0 3.0 8.3 89 0.8 WSW 35 48 19 26 1004.0 1004.0 3.6
31/11:18am 10.3 3.2 8.2 87 1.0 WSW 35 44 19 24 1003.8 - 3.2
31/11:00am 11.2 5.7 9.1 87 1.0 W 28 39 15 21 1003.5 - 3.0
31/10:30am 11.0 5.8 8.9 87 1.0 WSW 26 43 14 23 1003.3 1003.3 3.0
31/10:05am 10.6 3.7 8.9 89 0.8 WSW 35 54 19 29 1003.2 - 3.0
31/10:00am 10.7 4.5 9.3 91 0.7 SW 32 41 17 22 1003.1 - 3.0
31/09:49am 11.1 4.4 9.7 91 0.7 SW 35 48 19 26 1002.9 - 2.8
31/09:32am 12.3 6.0 10.9 91 0.7 SW 35 54 19 29 1002.3 - 2.2
31/09:30am 12.3 5.1 10.5 89 0.9 WSW 39 54 21 29 1002.2 1002.2 2.2
31/09:27am 12.9 5.2 10.1 83 1.4 SW 41 54 22 29 1002.0 - 1.4
31/09:25am 15.0 8.9 11.8 81 1.7 W 35 43 19 23 1002.1 - 0.0
31/09:00am 15.2 7.4 11.2 77 2.1 NW 43 65 23 35 1001.2 1001.2 0.2
31/08:30am 15.1 7.6 10.9 76 2.2 NW 41 61 22 33 1001.1 1001.1 0.2
31/08:03am 15.0 8.7 11.0 77 2.1 NW 35 54 19 29 1001.6 - 0.2
31/08:00am 15.0 8.7 11.0 77 2.1 NW 35 50 19 27 1001.7 - 0.2
31/07:32am 15.0 9.0 10.8 76 2.2 NW 33 52 18 28 1001.8 - 0.2
31/07:30am 15.0 8.6 10.8 76 2.2 NW 35 48 19 26 1002.0 1002.0 0.2
31/07:00am 15.2 8.1 10.8 75 2.3 NW 39 59 21 32 1002.5 - 0.2
31/06:30am 15.0 7.4 10.4 74 2.4 WNW 41 61 22 33 1002.6 1002.6 0.2
31/06:00am 14.6 7.0 10.4 76 2.2 WNW 41 61 22 33 1002.7 1002.7 0.2
31/05:30am 14.7 7.9 10.7 77 2.1 NW 37 56 20 30 1002.9 1002.9 0.2
31/05:00am 14.5 8.3 11.5 82 1.6 NW 35 56 19 30 1003.3 - 0.2
31/04:30am 14.2 8.7 11.7 85 1.3 NW 32 43 17 23 1003.5 1003.5 0.0
31/04:10am 14.9 8.9 10.9 77 2.1 NW 33 52 18 28 1003.8 - 0.0
31/04:00am 14.8 8.5 11.0 78 2.0 NW 35 50 19 27 1004.0 - 0.0
31/03:45am 14.8 8.8 10.8 77 2.1 NW 33 52 18 28 1004.4 - 0.0
31/03:30am 15.0 7.9 10.8 76 2.2 NW 39 56 21 30 1004.7 1004.7 0.0
31/03:20am 14.9 9.0 11.1 78 2.0 NW 33 57 18 31 1004.8 - 0.0
31/03:00am 14.8 8.9 11.0 78 2.0 NW 33 46 18 25 1005.2 1005.2 0.0
31/02:30am 14.4 9.1 11.2 81 1.7 NNW 30 44 16 24 1005.5 1005.5 0.0
31/02:00am 14.6 9.3 11.4 81 1.7 NNW 30 43 16 23 1005.9 - 0.0
31/01:30am 14.8 9.1 11.0 78 2.0 NW 32 44 17 24 1006.3 1006.3 0.0
31/01:11am 14.9 9.2 11.1 78 2.0 NW 32 50 17 27 1006.7 - 0.0
31/01:00am 14.6 8.7 11.0 79 1.9 NW 33 50 18 27 1006.8 - 0.0
31/12:30am 14.6 9.3 11.2 80 1.8 NW 30 54 16 29 1007.6 1007.6 0.0
31/12:00am 14.5 9.5 11.1 80 1.8 NW 28 46 15 25 1008.1 1008.1 0.0
 
Date/Time
CST
Temp
°C
App
Temp
°C
Dew
Point
Rel
Hum
%
Delta-T
°C
Wind Press
QNH
hPa
Press
MSL
hPa
Rain
since 9 am
mm
Dir
 
Spd
km/h
Gust
km/h
Spd
kts
Gust
kts
30/11:30pm 14.7 9.8 11.3 80 1.8 NW 28 37 15 20 1008.6 1008.6 0.0
30/11:00pm 14.6 9.2 11.0 79 1.9 NW 30 41 16 22 1008.9 - 0.0
30/10:30pm 14.9 9.0 11.1 78 2.0 NW 33 48 18 26 1009.4 1009.4 0.0
30/10:00pm 14.9 8.9 10.9 77 2.1 NW 33 52 18 28 1010.1 - 0.0
30/09:30pm 15.0 8.6 10.6 75 2.3 NW 35 50 19 27 1010.4 1010.4 0.0
30/09:00pm 15.3 9.5 10.9 75 2.3 NW 32 41 17 22 1010.7 1010.7 0.0
30/08:58pm 15.3 9.5 10.7 74 2.4 NW 32 50 17 27 1010.8 - 0.0
30/08:30pm 15.4 9.5 11.0 75 2.3 NW 33 46 18 25 1011.0 1011.0 0.0
30/08:00pm 15.4 9.8 11.4 77 2.1 NW 32 46 17 25 1011.3 - 0.0
30/07:30pm 15.5 9.9 12.1 80 1.9 NW 33 44 18 24 1011.7 1011.7 0.0
30/07:00pm 15.4 9.8 12.0 80 1.8 NW 33 46 18 25 1012.0 - 0.0
30/06:30pm 15.3 10.3 12.1 81 1.7 NW 30 39 16 21 1012.0 1012.0 0.0
30/06:00pm 15.3 10.7 12.2 82 1.7 NW 28 39 15 21 1012.0 1012.0 0.0
30/05:30pm 15.6 10.7 12.4 81 1.8 NW 30 46 16 25 1011.9 1011.9 0.0
30/05:28pm 15.6 11.0 12.2 80 1.9 NW 28 46 15 25 1011.8 - 0.0
30/05:00pm 15.7 11.2 12.5 81 1.8 NW 28 41 15 22 1011.7 - 0.0
30/04:30pm 15.8 11.6 12.5 81 1.8 NW 26 35 14 19 1011.9 1011.9 0.0
30/04:00pm 16.4 11.5 12.4 77 2.2 NW 30 43 16 23 1012.1 - 0.0
30/03:30pm 16.5 9.8 11.0 70 2.9 WNW 37 57 20 31 1012.2 1012.2 0.0
30/03:00pm 16.9 10.3 11.2 69 3.1 NW 37 61 20 33 1012.4 1012.4 0.0
30/02:30pm 17.8 11.5 12.3 70 3.0 NW 37 50 20 27 1012.6 1012.6 0.0
30/02:01pm 17.3 10.9 10.7 65 3.5 NW 35 54 19 29 1012.8 - 0.0
30/02:00pm 17.4 11.0 10.8 65 3.5 NW 35 52 19 28 1012.8 - 0.0
30/01:30pm 17.7 10.7 11.3 66 3.5 WNW 39 52 21 28 1013.2 1013.2 0.0
30/01:00pm 17.4 10.6 10.5 64 3.7 WNW 37 54 20 29 1013.8 - 0.0
30/12:55pm 17.3 10.9 10.7 65 3.5 WNW 35 54 19 29 1013.7 - 0.0
30/12:30pm 17.8 11.3 11.6 67 3.4 WNW 37 50 20 27 1014.3 1014.3 0.0
30/12:15pm 18.3 12.8 11.8 66 3.6 WNW 32 50 17 27 1014.6 - 0.0
30/12:00pm 17.5 10.3 10.6 64 3.7 WNW 39 52 21 28 1014.7 1014.7 0.0
30/11:36am 17.1 10.6 10.2 64 3.7 W 35 54 19 29 1015.2 - 0.0
30/11:30am 16.8 9.4 9.7 63 3.7 WNW 39 54 21 29 1015.4 1015.4 0.0
30/11:06am 16.9 11.1 10.7 67 3.3 WNW 32 50 17 27 1015.5 - 0.0
30/11:00am 16.3 10.6 11.0 71 2.8 W 32 44 17 24 1015.6 - 0.0
30/10:30am 17.0 9.9 9.7 62 3.8 W 37 61 20 33 1015.8 1015.8 0.0
30/10:02am 17.0 12.0 12.1 73 2.7 WNW 30 48 16 26 1015.8 - 0.0
30/10:00am 17.0 12.5 12.5 75 2.5 WNW 28 44 15 24 1015.9 - 0.0
30/09:48am 16.2 10.7 12.0 76 2.3 WNW 32 50 17 27 1015.9 - 0.0
30/09:30am 16.4 12.1 12.0 75 2.4 WNW 26 39 14 21 1016.0 1016.0 0.0
30/09:00am 15.5 11.7 12.4 82 1.7 NW 24 35 13 19 1016.1 1016.1 0.4
30/08:30am 15.5 11.6 12.1 80 1.8 NW 24 32 13 17 1016.0 1016.0 0.4
30/08:00am 14.5 11.7 11.3 81 1.7 NW 17 26 9 14 1015.8 - 0.4
30/07:30am 14.2 10.5 10.2 77 2.1 WNW 20 28 11 15 1016.0 1016.0 0.4
30/07:00am 14.4 10.4 10.4 77 2.1 WNW 22 30 12 16 1015.9 - 0.4
30/06:30am 14.5 10.0 10.1 75 2.3 WNW 24 35 13 19 1015.6 1015.6 0.4
30/06:00am 14.9 10.9 10.5 75 2.3 W 22 39 12 21 1015.6 1015.6 0.4
30/05:30am 14.4 11.2 11.2 81 1.7 W 19 26 10 14 1015.2 1015.2 0.4
30/05:00am 14.9 9.7 11.5 80 1.8 WNW 30 41 16 22 1014.9 - 0.4
30/04:30am 15.1 10.8 12.2 83 1.6 WNW 26 35 14 19 1014.9 1014.9 0.4
30/04:00am 14.6 11.0 11.9 84 1.5 WNW 22 30 12 16 1014.8 - 0.4
30/03:30am 14.6 9.7 11.2 80 1.8 WNW 28 37 15 20 1015.2 1015.2 0.4
30/03:00am 14.8 10.7 11.6 81 1.7 WNW 24 33 13 18 1015.6 1015.6 0.4
30/02:30am 14.9 10.9 11.7 81 1.7 WNW 24 35 13 19 1015.8 1015.8 0.4
30/02:00am 15.0 11.1 12.1 83 1.6 WNW 24 35 13 19 1015.9 - 0.4
30/01:30am 15.1 11.2 12.2 83 1.6 WNW 24 35 13 19 1015.9 1015.9 0.4
30/01:00am 15.2 10.5 12.0 81 1.7 WNW 28 35 15 19 1016.1 - 0.4
30/12:30am 14.8 11.0 12.5 86 1.3 WNW 24 35 13 19 1016.1 1016.1 0.4
30/12:00am 14.6 10.9 12.6 88 1.1 WNW 24 33 13 18 1016.4 1016.4 0.4
 
Date/Time
CST
Temp
°C
App
Temp
°C
Dew
Point
Rel
Hum
%
Delta-T
°C
Wind Press
QNH
hPa
Press
MSL
hPa
Rain
since 9 am
mm
Dir
 
Spd
km/h
Gust
km/h
Spd
kts
Gust
kts
29/11:30pm 14.6 11.3 12.8 89 1.0 W 22 30 12 16 1016.4 1016.4 0.4
29/11:00pm 14.3 11.4 12.2 87 1.1 WNW 19 26 10 14 1016.5 - 0.4
29/10:30pm 14.4 11.5 12.3 87 1.1 WNW 19 24 10 13 1016.6 1016.6 0.4
29/10:00pm 14.5 11.1 12.5 88 1.1 W 22 30 12 16 1016.6 - 0.4
29/09:30pm 15.0 11.7 11.6 80 1.8 W 20 28 11 15 1016.3 1016.3 0.2
29/09:00pm 14.9 10.1 11.7 81 1.7 W 28 37 15 20 1016.2 1016.2 0.2
29/08:30pm 14.9 10.6 11.9 82 1.6 WNW 26 35 14 19 1015.8 1015.8 0.2
29/08:00pm 14.8 11.8 11.8 82 1.6 WNW 19 24 10 13 1015.8 - 0.2
29/07:30pm 15.0 11.2 12.3 84 1.5 W 24 32 13 17 1015.7 1015.7 0.2
29/07:00pm 14.8 9.4 12.1 84 1.5 W 32 46 17 25 1015.5 - 0.2
29/06:54pm 15.0 10.3 12.0 82 1.6 W 28 46 15 25 1015.2 - 0.2
29/06:30pm 15.4 11.5 12.2 81 1.7 W 24 35 13 19 1015.0 1015.0 0.2
29/06:00pm 15.4 10.2 12.7 84 1.5 W 32 43 17 23 1014.8 1014.8 0.2
29/05:30pm 15.7 10.8 12.5 81 1.8 WNW 30 43 16 23 1014.4 1014.4 0.2
29/05:00pm 16.1 12.0 12.7 80 1.9 W 26 37 14 20 1014.2 - 0.2
29/04:30pm 16.5 11.1 12.3 76 2.3 W 32 46 17 25 1013.9 1013.9 0.2
29/04:00pm 16.4 11.1 12.6 78 2.1 W 32 50 17 27 1013.6 - 0.2
29/03:30pm 16.4 10.2 12.6 78 2.1 WNW 37 59 20 32 1013.3 1013.3 0.2
29/03:00pm 16.4 10.6 12.8 79 2.0 W 35 52 19 28 1013.3 1013.3 0.2
29/02:30pm 17.4 11.3 12.9 75 2.5 W 37 56 20 30 1013.2 1013.2 0.2
29/02:10pm 17.5 11.9 13.2 76 2.4 W 35 54 19 29 1013.1 - 0.2
29/02:00pm 16.5 9.6 12.7 78 2.1 W 41 52 22 28 1013.0 - 0.2
29/01:30pm 16.8 9.8 12.5 76 2.4 W 41 57 22 31 1013.2 1013.2 0.2
29/01:00pm 16.9 10.1 12.0 73 2.7 W 39 59 21 32 1013.0 - 0.2
29/12:30pm 17.1 9.6 12.2 73 2.7 WNW 43 85 23 46 1013.1 1013.1 0.2
29/12:27pm 16.8 9.9 11.7 72 2.8 WNW 39 85 21 46 1012.9 - 0.2
29/12:00pm 16.6 10.4 12.6 77 2.2 W 37 57 20 31 1013.4 1013.4 0.2
29/11:36am 16.7 10.5 12.5 76 2.3 WNW 37 56 20 30 1013.5 - 0.2
29/11:30am 17.1 10.2 12.8 76 2.4 WNW 41 56 22 30 1013.6 1013.6 0.2
29/11:02am 16.2 9.2 12.6 79 2.0 WNW 41 63 22 34 1013.4 - 0.2
29/11:00am 16.2 9.5 12.4 78 2.1 WNW 39 56 21 30 1013.4 - 0.2
29/10:44am 16.5 10.4 11.9 74 2.5 WNW 35 67 19 36 1013.5 - 0.2
29/10:30am 16.0 10.5 12.6 80 1.9 WNW 33 48 18 26 1013.7 1013.7 0.2
29/10:00am 16.1 9.8 12.3 78 2.1 WNW 37 57 20 31 1013.6 - 0.2
29/09:43am 15.9 10.6 12.6 81 1.8 WNW 32 50 17 27 1013.5 - 0.2
29/09:30am 15.4 9.5 12.5 83 1.6 WNW 35 50 19 27 1013.4 1013.4 0.2
29/09:00am 15.8 9.9 12.5 81 1.8 WNW 35 54 19 29 1013.1 1013.1 4.0
29/08:50am 15.7 10.2 12.6 82 1.7 WNW 33 57 18 31 1013.2 - 4.0
29/08:30am 15.4 10.6 12.9 85 1.4 WNW 30 41 16 22 1013.1 1013.1 4.0
29/08:00am 14.5 10.7 12.4 87 1.1 WNW 24 33 13 18 1013.2 - 4.0
29/07:30am 14.6 11.1 12.3 86 1.3 WNW 22 30 12 16 1013.1 1013.1 4.0
29/07:00am 14.1 10.9 12.0 87 1.1 WNW 20 28 11 15 1012.6 - 4.0
29/06:30am 13.8 10.0 12.4 91 0.8 WNW 24 32 13 17 1012.9 1012.9 4.0
29/06:17am 13.6 8.9 12.0 90 0.9 WNW 28 41 15 22 1012.7 - 4.0
29/06:00am 13.6 7.7 12.5 93 0.6 W 35 56 19 30 1012.6 1012.6 4.0
29/05:49am 13.7 9.2 12.6 93 0.6 W 28 56 15 30 1012.4 - 2.8
29/05:30am 14.1 10.4 12.8 92 0.7 WNW 24 35 13 19 1012.1 1012.1 0.8
29/05:18am 14.4 9.9 12.6 89 1.0 NW 28 41 15 22 1011.9 - 0.4
29/05:17am 14.5 10.0 12.5 88 1.1 NW 28 46 15 25 1011.9 - 0.4
29/05:00am 14.6 9.6 12.1 85 1.4 NW 30 41 16 22 1012.0 - 0.2
29/04:35am 14.2 9.9 12.2 88 1.1 WNW 26 41 14 22 1012.3 - 0.2
29/04:30am 14.1 10.3 12.3 89 1.0 WNW 24 32 13 17 1012.4 1012.4 0.2
29/04:12am 14.3 9.3 12.2 87 1.1 WNW 30 41 16 22 1012.7 - 0.0
29/04:11am 14.3 9.3 12.2 87 1.1 WNW 30 41 16 22 1012.6 - 0.0
29/04:00am 14.5 9.1 12.2 86 1.2 WNW 32 43 17 23 1012.5 - 0.0
29/03:52am 14.6 9.6 12.1 85 1.4 WNW 30 41 16 22 1012.4 - 0.0
29/03:30am 14.9 10.1 11.7 81 1.7 WNW 28 43 15 23 1012.3 1012.3 0.0
29/03:00am 14.6 9.3 11.4 81 1.7 NW 30 48 16 26 1012.1 1012.1 0.0
29/02:56am 14.7 9.9 11.5 81 1.7 NW 28 48 15 26 1012.0 - 0.0
29/02:30am 14.8 10.8 11.8 82 1.6 NW 24 33 13 18 1012.0 1012.0 0.0
29/02:00am 14.7 11.1 12.0 84 1.5 NW 22 39 12 21 1012.3 - 0.0
29/01:30am 14.3 10.4 12.0 86 1.2 NW 24 35 13 19 1012.5 1012.5 0.0
29/01:00am 14.4 9.3 11.9 85 1.3 NW 30 43 16 23 1012.8 - 0.0
29/12:30am 14.3 8.7 11.6 84 1.4 NW 32 44 17 24 1013.2 1013.2 0.0
29/12:00am 14.3 9.1 11.5 83 1.5 NW 30 44 16 24 1013.4 1013.4 0.0
 
Date/Time
CST
Temp
°C
App
Temp
°C
Dew
Point
Rel
Hum
%
Delta-T
°C
Wind Press
QNH
hPa
Press
MSL
hPa
Rain
since 9 am
mm
Dir
 
Spd
km/h
Gust
km/h
Spd
kts
Gust
kts
28/11:38pm 14.3 9.1 11.5 83 1.5 NW 30 48 16 26 1013.4 - 0.0
28/11:30pm 14.5 9.7 11.5 82 1.6 NW 28 44 15 24 1013.5 1013.5 0.0
28/11:00pm 14.5 10.0 11.3 81 1.7 NNW 26 41 14 22 1013.9 - 0.0
28/10:52pm 14.6 9.7 11.4 81 1.7 NW 28 46 15 25 1013.9 - 0.0
28/10:30pm 14.6 9.8 11.6 82 1.6 NW 28 39 15 21 1014.2 1014.2 0.0
28/10:00pm 14.5 9.3 11.5 82 1.6 NW 30 41 16 22 1014.2 - 0.0
28/09:30pm 14.6 9.0 11.4 81 1.7 NW 32 43 17 23 1014.3 1014.3 0.0

Other Formats:

Comma delimited format used in spreadsheet applications
http://www.bom.gov.au/fwo/IDS60801/IDS60801.95807.axf

JavaScript Object Notation format (JSON) in row-major order
http://www.bom.gov.au/fwo/IDS60801/IDS60801.95807.json